| time (UTC) | temp F | wind direction | speed knots | gust knots | rain 1hr in | rain 24hr in | rain mn in | humidity % | barometer mb |
| 20260502164319 | 55 | 17 | 0.9 | 2.6 | 0.00 | 0.00 | 0.00 | 25 | 1023.0 |
| 20260502163820 | 55 | 19 | 0.0 | 2.6 | 0.00 | 0.00 | 0.00 | 28 | 1023.1 |
| 20260502163308 | 55 | 49 | 0.0 | 2.6 | 0.00 | 0.00 | 0.00 | 27 | 1023.1 |
| 20260502162837 | 54 | 50 | 0.0 | 4.3 | 0.00 | 0.00 | 0.00 | 28 | 1023.1 |
| 20260502162324 | 54 | 57 | 0.9 | 4.3 | 0.00 | 0.00 | 0.00 | 28 | 1023.1 |
| 20260502161805 | 54 | 44 | 0.9 | 1.7 | 0.00 | 0.00 | 0.00 | 29 | 1023.2 |
| 20260502161314 | 53 | 86 | 0.0 | 2.6 | 0.00 | 0.00 | 0.00 | 30 | 1023.1 |
| 20260502160823 | 52 | 86 | 0.9 | 4.3 | 0.00 | 0.00 | 0.00 | 30 | 1023.2 |
| 20260502160305 | 52 | 64 | 1.7 | 4.3 | 0.00 | 0.00 | 0.00 | 31 | 1023.2 |
| 20260502152324 | 49 | 62 | 0.0 | 1.7 | 0.00 | 0.00 | 0.00 | 35 | 1023.2 |
| 20260502151806 | 48 | 62 | 0.0 | 1.7 | 0.00 | 0.00 | 0.00 | 36 | 1023.3 |
| 20260502151315 | 48 | 61 | 0.0 | 1.7 | 0.00 | 0.00 | 0.00 | 38 | 1023.3 |
| 20260502150824 | 47 | 59 | 0.0 | 1.7 | 0.00 | 0.00 | 0.00 | 38 | 1023.4 |
| 20260502150332 | 47 | 60 | 0.0 | 0.0 | 0.00 | 0.00 | 0.00 | 37 | 1023.5 |
| 20260502130318 | 24 | 229 | 0.9 | 3.5 | 0.00 | 0.01 | 0.00 | 71 | 1023.3 |
| 20260502123813 | 21 | 229 | 1.7 | 3.5 | 0.00 | 0.01 | 0.00 | 69 | 1023.2 |
| 20260502123322 | 21 | 229 | 2.6 | 3.5 | 0.00 | 0.01 | 0.00 | 69 | 1023.3 |
| 20260502122812 | 21 | 249 | 2.6 | 3.5 | 0.00 | 0.01 | 0.00 | 69 | 1023.2 |
| 20260502122312 | 21 | 249 | 1.7 | 3.5 | 0.00 | 0.01 | 0.00 | 69 | 1023.2 |
| 20260502121842 | 21 | 249 | 2.6 | 3.5 | 0.00 | 0.01 | 0.00 | 68 | 1023.2 |
| 20260502121308 | 22 | 249 | 1.7 | 3.5 | 0.00 | 0.01 | 0.00 | 68 | 1023.2 |
| 20260502120313 | 22 | 249 | 2.6 | 2.6 | 0.00 | 0.01 | 0.00 | 69 | 1023.2 |
| 20260502115821 | 22 | 249 | 1.7 | 2.6 | 0.00 | 0.01 | 0.00 | 69 | 1023.1 |
| 20260502115329 | 22 | 249 | 0.9 | 2.6 | 0.00 | 0.01 | 0.00 | 69 | 1023.1 |
| 20260502114811 | 22 | 249 | 0.9 | 4.3 | 0.00 | 0.01 | 0.00 | 69 | 1023.1 |
| 20260502114319 | 21 | 248 | 2.6 | 4.3 | 0.00 | 0.01 | 0.00 | 68 | 1023.2 |
| 20260502113806 | 21 | 247 | 1.7 | 4.3 | 0.00 | 0.01 | 0.00 | 67 | 1023.2 |
| 20260502113314 | 22 | 247 | 1.7 | 4.3 | 0.00 | 0.01 | 0.00 | 68 | 1023.2 |
| 20260502112815 | 22 | 244 | 2.6 | 3.5 | 0.00 | 0.01 | 0.00 | 68 | 1023.2 |
| 20260502112306 | 22 | 243 | 2.6 | 4.3 | 0.00 | 0.01 | 0.00 | 69 | 1023.2 |
| 20260502111812 | 22 | 242 | 3.5 | 6.1 | 0.00 | 0.01 | 0.00 | 70 | 1023.2 |
| 20260502111314 | 22 | 241 | 4.3 | 6.1 | 0.00 | 0.01 | 0.00 | 71 | 1023.2 |
| 20260502110823 | 22 | 237 | 4.3 | 5.2 | 0.00 | 0.01 | 0.00 | 69 | 1023.2 |
| 20260502110311 | 22 | 237 | 3.5 | 4.3 | 0.00 | 0.01 | 0.00 | 68 | 1023.3 |
| 20260502105841 | 22 | 233 | 3.5 | 4.3 | 0.00 | 0.01 | 0.00 | 68 | 1023.3 |
| 20260502105325 | 23 | 239 | 3.5 | 4.3 | 0.00 | 0.01 | 0.00 | 67 | 1023.4 |
| 20260502104833 | 23 | 240 | 2.6 | 5.2 | 0.00 | 0.01 | 0.00 | 66 | 1023.4 |
| 20260502104314 | 24 | 241 | 2.6 | 6.1 | 0.00 | 0.01 | 0.00 | 65 | 1023.2 |
| 20260502103822 | 24 | 240 | 4.3 | 5.2 | 0.00 | 0.01 | 0.00 | 64 | 1023.2 |
| 20260502103310 | 25 | 246 | 4.3 | 5.2 | 0.00 | 0.01 | 0.00 | 63 | 1023.2 |
| 20260502102812 | 26 | 254 | 2.6 | 4.3 | 0.00 | 0.01 | 0.00 | 63 | 1023.3 |
| 20260502102320 | 26 | 303 | 1.7 | 3.5 | 0.00 | 0.01 | 0.00 | 63 | 1023.2 |
| 20260502101320 | 25 | 303 | 2.6 | 3.5 | 0.00 | 0.01 | 0.00 | 65 | 1023.2 |
| 20260502100828 | 24 | 303 | 1.7 | 3.5 | 0.00 | 0.01 | 0.00 | 66 | 1023.2 |
| 20260502100308 | 24 | 303 | 2.6 | 3.5 | 0.00 | 0.01 | 0.00 | 65 | 1023.2 |
| 20260502091341 | 23 | 309 | 3.5 | 4.3 | 0.00 | 0.01 | 0.00 | 65 | 1023.0 |
| 20260502090828 | 24 | 325 | 1.7 | 2.6 | 0.00 | 0.01 | 0.00 | 65 | 1023.0 |
| 20260502090309 | 24 | 325 | 0.9 | 2.6 | 0.00 | 0.01 | 0.00 | 64 | 1022.9 |
| 20260502071312 | 27 | 265 | 0.0 | 0.0 | 0.00 | 0.01 | 0.00 | 57 | 1023.0 |
| 20260502070820 | 27 | 265 | 0.0 | 0.0 | 0.00 | 0.01 | 0.00 | 55 | 1023.0 |
| 20260502070328 | 28 | 265 | 0.0 | 5.2 | 0.00 | 0.01 | 0.00 | 54 | 1022.9 |
| 20260502065809 | 29 | 265 | 0.9 | 5.2 | 0.00 | 0.01 | 0.00 | 56 | 1022.8 |
| 20260502065316 | 28 | 269 | 2.6 | 4.3 | 0.00 | 0.01 | 0.00 | 56 | 1022.7 |
| 20260502064807 | 28 | 259 | 2.6 | 4.3 | 0.00 | 0.01 | 0.00 | 55 | 1022.7 |
| 20260502064306 | 28 | 243 | 3.5 | 4.3 | 0.00 | 0.01 | 0.00 | 55 | 1022.7 |
| 20260502063815 | 29 | 306 | 2.6 | 3.5 | 0.00 | 0.01 | 0.00 | 56 | 1022.6 |
| 20260502063352 | 29 | 306 | 0.9 | 3.5 | 0.00 | 0.01 | 0.00 | 56 | 1022.6 |
| 20260502062807 | 30 | 327 | 0.9 | 2.6 | 0.00 | 0.01 | 0.00 | 54 | 1022.5 |
| 20260502062315 | 31 | 327 | 0.9 | 2.6 | 0.00 | 0.01 | 0.00 | 53 | 1022.5 |
| 20260502061824 | 31 | 355 | 0.0 | 0.0 | 0.00 | 0.01 | 0.00 | 54 | 1022.5 |
| 20260502061305 | 31 | 355 | 0.0 | 1.7 | 0.00 | 0.01 | 0.00 | 57 | 1022.5 |
| 20260502060813 | 31 | 355 | 0.0 | 2.6 | 0.00 | 0.01 | 0.00 | 58 | 1022.5 |
| 20260502060321 | 31 | 355 | 0.9 | 2.6 | 0.00 | 0.01 | 0.00 | 56 | 1022.4 |
| 20260502055825 | 32 | 355 | 0.9 | 2.6 | 0.00 | 0.01 | 0.01 | 55 | 1022.4 |
| 20260502055306 | 33 | 355 | 1.7 | 2.6 | 0.00 | 0.01 | 0.01 | 53 | 1022.4 |
| 20260502054835 | 33 | 331 | 0.0 | 2.6 | 0.00 | 0.01 | 0.01 | 51 | 1022.4 |
| 20260502054328 | 33 | 331 | 0.9 | 2.6 | 0.00 | 0.01 | 0.01 | 51 | 1022.4 |
| 20260502053809 | 33 | 342 | 0.9 | 2.6 | 0.00 | 0.01 | 0.01 | 52 | 1022.4 |
| 20260502053316 | 34 | 342 | 1.7 | 3.5 | 0.00 | 0.01 | 0.01 | 50 | 1022.3 |
| 20260502052824 | 34 | 342 | 0.9 | 3.5 | 0.00 | 0.01 | 0.01 | 50 | 1022.1 |
| 20260502052310 | 34 | 355 | 0.0 | 4.3 | 0.00 | 0.01 | 0.01 | 51 | 1022.1 |
| 20260502051812 | 34 | 266 | 2.6 | 5.2 | 0.00 | 0.01 | 0.01 | 51 | 1022.0 |
| 20260502051348 | 34 | 258 | 2.6 | 6.1 | 0.00 | 0.01 | 0.01 | 52 | 1021.9 |
| 20260502050808 | 34 | 251 | 4.3 | 6.1 | 0.00 | 0.01 | 0.01 | 49 | 1022.0 |
| 20260502050316 | 35 | 210 | 0.9 | 2.6 | 0.00 | 0.01 | 0.01 | 48 | 1022.0 |
| 20260502045825 | 35 | 119 | 0.0 | 7.8 | 0.00 | 0.01 | 0.01 | 48 | 1022.0 |
| 20260502045306 | 35 | 119 | 0.9 | 7.8 | 0.00 | 0.01 | 0.01 | 48 | 1022.0 |
| 20260502044813 | 36 | 154 | 2.6 | 3.5 | 0.00 | 0.01 | 0.01 | 43 | 1021.9 |
| 20260502044322 | 36 | 111 | 0.0 | 0.0 | 0.00 | 0.01 | 0.01 | 44 | 1021.9 |
| 20260502043832 | 36 | 111 | 0.0 | 0.0 | 0.00 | 0.01 | 0.01 | 45 | 1021.8 |
| 20260502043311 | 37 | 111 | 0.0 | 0.0 | 0.00 | 0.01 | 0.01 | 45 | 1021.9 |
| 20260502042820 | 37 | 111 | 0.0 | 0.0 | 0.00 | 0.01 | 0.01 | 45 | 1021.9 |
| 20260502042307 | 37 | 113 | 0.0 | 0.0 | 0.00 | 0.01 | 0.01 | 44 | 1021.9 |
| 20260502041809 | 37 | 214 | 0.0 | 0.0 | 0.00 | 0.01 | 0.01 | 43 | 1021.8 |
| 20260502041318 | 37 | 214 | 0.0 | 0.9 | 0.00 | 0.01 | 0.01 | 43 | 1021.8 |
| 20260502040810 | 37 | 214 | 0.0 | 2.6 | 0.00 | 0.01 | 0.01 | 41 | 1021.7 |
| 20260502040318 | 38 | 214 | 1.7 | 2.6 | 0.00 | 0.01 | 0.01 | 41 | 1021.6 |
| 20260502035827 | 38 | 214 | 0.9 | 6.1 | 0.00 | 0.01 | 0.01 | 41 | 1021.6 |
| 20260502035308 | 37 | 234 | 3.5 | 6.1 | 0.00 | 0.01 | 0.01 | 42 | 1021.5 |
| 20260502034813 | 37 | 215 | 1.7 | 3.5 | 0.00 | 0.01 | 0.01 | 38 | 1021.4 |
| 20260502034322 | 38 | 270 | 0.0 | 0.9 | 0.00 | 0.01 | 0.01 | 37 | 1021.3 |
| 20260502033830 | 39 | 270 | 0.0 | 2.6 | 0.00 | 0.01 | 0.01 | 36 | 1021.2 |
| 20260502033311 | 40 | 270 | 0.9 | 5.2 | 0.00 | 0.01 | 0.01 | 37 | 1021.2 |
| 20260502032820 | 41 | 222 | 3.5 | 5.2 | 0.00 | 0.01 | 0.01 | 32 | 1021.2 |
| 20260502032328 | 43 | 287 | 0.0 | 0.9 | 0.00 | 0.01 | 0.01 | 31 | 1021.2 |
| 20260502031810 | 44 | 287 | 0.0 | 2.6 | 0.00 | 0.01 | 0.01 | 30 | 1021.0 |
| 20260502031318 | 45 | 287 | 0.9 | 3.5 | 0.00 | 0.01 | 0.01 | 30 | 1020.9 |
| 20260502030826 | 44 | 284 | 1.7 | 4.3 | 0.00 | 0.01 | 0.01 | 30 | 1020.9 |
| 20260502030307 | 45 | 288 | 2.6 | 4.3 | 0.00 | 0.01 | 0.01 | 31 | 1020.8 |
| 20260502025815 | 46 | 278 | 1.7 | 3.5 | 0.00 | 0.01 | 0.01 | 31 | 1020.7 |
| 20260502025306 | 47 | 136 | 0.0 | 0.0 | 0.00 | 0.01 | 0.01 | 26 | 1020.6 |
| 20260502024805 | 48 | 136 | 0.0 | 0.0 | 0.00 | 0.01 | 0.01 | 26 | 1020.5 |
| 20260502024320 | 49 | 136 | 0.0 | 0.0 | 0.00 | 0.01 | 0.01 | 24 | 1020.4 |
| 20260502023829 | 50 | 136 | 0.0 | 0.0 | 0.00 | 0.01 | 0.01 | 23 | 1020.4 |
| 20260502023309 | 51 | 136 | 0.0 | 0.0 | 0.00 | 0.01 | 0.01 | 23 | 1020.3 |
| 20260502022817 | 52 | 136 | 0.0 | 0.0 | 0.00 | 0.01 | 0.01 | 22 | 1020.3 |
| 20260502022325 | 52 | 136 | 0.0 | 0.0 | 0.00 | 0.01 | 0.01 | 22 | 1020.2 |
| 20260502021834 | 53 | 136 | 0.0 | 0.0 | 0.00 | 0.01 | 0.01 | 22 | 1020.2 |
| 20260502021323 | 54 | 136 | 0.0 | 0.0 | 0.00 | 0.01 | 0.01 | 22 | 1020.2 |
| 20260502020811 | 54 | 136 | 0.0 | 0.0 | 0.00 | 0.01 | 0.01 | 22 | 1020.1 |
| 20260502020318 | 55 | 136 | 0.0 | 0.0 | 0.00 | 0.01 | 0.01 | 22 | 1020.1 |
| 20260502015827 | 56 | 136 | 0.0 | 0.0 | 0.00 | 0.02 | 0.01 | 23 | 1020.1 |
| 20260502015308 | 56 | 136 | 0.0 | 1.7 | 0.00 | 0.02 | 0.01 | 22 | 1020.1 |
| 20260502014817 | 57 | 136 | 0.0 | 3.5 | 0.00 | 0.02 | 0.01 | 20 | 1020.0 |
| 20260502014325 | 57 | 136 | 0.9 | 4.3 | 0.00 | 0.02 | 0.01 | 21 | 1020.0 |
| 20260502013807 | 58 | 136 | 1.7 | 4.3 | 0.00 | 0.02 | 0.01 | 19 | 1020.0 |
| 20260502013312 | 58 | 137 | 0.9 | 6.1 | 0.00 | 0.02 | 0.01 | 19 | 1019.9 |
| 20260502012821 | 58 | 128 | 1.7 | 5.2 | 0.00 | 0.02 | 0.01 | 18 | 1019.9 |
| 20260502012310 | 58 | 131 | 1.7 | 5.2 | 0.00 | 0.02 | 0.01 | 19 | 1019.8 |
| 20260502011819 | 58 | 132 | 0.9 | 5.2 | 0.00 | 0.02 | 0.01 | 19 | 1019.8 |
| 20260502011320 | 58 | 67 | 0.0 | 1.7 | 0.00 | 0.02 | 0.01 | 18 | 1019.8 |
| 20260502010808 | 58 | 63 | 0.0 | 3.5 | 0.00 | 0.02 | 0.01 | 19 | 1019.8 |
| 20260502010337 | 58 | 63 | 0.0 | 4.3 | 0.00 | 0.02 | 0.01 | 18 | 1019.8 |
| 20260502005825 | 59 | 80 | 0.0 | 4.3 | 0.00 | 0.04 | 0.01 | 19 | 1019.8 |
| 20260502005307 | 59 | 77 | 0.9 | 4.3 | 0.00 | 0.04 | 0.01 | 19 | 1019.8 |
| 20260502004815 | 58 | 67 | 0.0 | 7.8 | 0.00 | 0.04 | 0.01 | 18 | 1019.8 |
| 20260502004323 | 59 | 64 | 4.3 | 7.8 | 0.00 | 0.04 | 0.01 | 18 | 1019.7 |
| 20260502003811 | 59 | 64 | 0.9 | 6.1 | 0.00 | 0.04 | 0.01 | 18 | 1019.8 |
| 20260502003312 | 59 | 84 | 0.0 | 8.7 | 0.00 | 0.04 | 0.01 | 18 | 1019.8 |
| 20260502002821 | 59 | 98 | 0.0 | 9.6 | 0.00 | 0.04 | 0.01 | 19 | 1019.7 |
| 20260502002309 | 59 | 119 | 5.2 | 9.6 | 0.00 | 0.04 | 0.01 | 18 | 1019.7 |
| 20260502001817 | 59 | 109 | 3.5 | 10.4 | 0.00 | 0.04 | 0.01 | 19 | 1019.7 |
| 20260502001346 | 59 | 103 | 8.7 | 10.4 | 0.00 | 0.04 | 0.01 | 18 | 1019.7 |
| 20260502000807 | 59 | 132 | 7.8 | 10.4 | 0.00 | 0.04 | 0.01 | 19 | 1019.7 |
| 20260502000317 | 60 | 128 | 5.2 | 11.3 | 0.00 | 0.04 | 0.01 | 17 | 1019.8 |
| 20260501235820 | 60 | 128 | 5.2 | 11.3 | 0.00 | 0.04 | 0.01 | 18 | 1019.8 |
| 20260501235308 | 60 | 151 | 4.3 | 9.6 | 0.00 | 0.04 | 0.01 | 18 | 1019.7 |
| 20260501234810 | 60 | 118 | 2.6 | 7.8 | 0.00 | 0.04 | 0.01 | 17 | 1019.9 |
| 20260501234318 | 60 | 113 | 0.0 | 7.8 | 0.00 | 0.04 | 0.01 | 17 | 1019.8 |
| 20260501233806 | 60 | 140 | 2.6 | 7.8 | 0.00 | 0.04 | 0.01 | 18 | 1019.7 |
| 20260501233314 | 60 | 45 | 2.6 | 11.3 | 0.00 | 0.04 | 0.01 | 17 | 1019.7 |
| 20260501232815 | 60 | 123 | 7.0 | 11.3 | 0.00 | 0.04 | 0.01 | 17 | 1019.7 |
| 20260501232324 | 60 | 124 | 7.0 | 8.7 | 0.00 | 0.04 | 0.01 | 17 | 1019.8 |
| 20260501231832 | 60 | 103 | 1.7 | 8.7 | 0.00 | 0.04 | 0.01 | 17 | 1019.9 |
| 20260501231319 | 60 | 96 | 2.6 | 8.7 | 0.00 | 0.04 | 0.01 | 18 | 1019.9 |
| 20260501230827 | 60 | 115 | 2.6 | 7.0 | 0.00 | 0.04 | 0.01 | 17 | 1019.9 |
| 20260501230309 | 60 | 126 | 1.7 | 7.8 | 0.00 | 0.04 | 0.01 | 18 | 1019.9 |
| 20260501225814 | 60 | 148 | 0.9 | 5.2 | 0.00 | 0.04 | 0.01 | 17 | 1019.9 |
| 20260501225322 | 59 | 204 | 1.7 | 8.7 | 0.00 | 0.04 | 0.01 | 17 | 1019.9 |
| 20260501224807 | 60 | 101 | 2.6 | 8.7 | 0.00 | 0.04 | 0.01 | 17 | 1019.9 |
| 20260501224316 | 60 | 109 | 0.9 | 8.7 | 0.00 | 0.04 | 0.01 | 17 | 1019.9 |
| 20260501223805 | 60 | 105 | 2.6 | 7.8 | 0.00 | 0.04 | 0.01 | 17 | 1019.9 |
| 20260501223306 | 60 | 78 | 3.5 | 8.7 | 0.00 | 0.04 | 0.01 | 17 | 1020.1 |
| 20260501222813 | 60 | 116 | 1.7 | 8.7 | 0.00 | 0.04 | 0.01 | 16 | 1020.1 |
| 20260501222322 | 60 | 117 | 0.0 | 7.0 | 0.00 | 0.04 | 0.01 | 17 | 1020.2 |
| 20260501221810 | 60 | 123 | 0.0 | 10.4 | 0.00 | 0.04 | 0.01 | 18 | 1020.2 |
| 20260501221338 | 60 | 121 | 5.2 | 10.4 | 0.00 | 0.04 | 0.01 | 18 | 1020.1 |
| 20260501220826 | 60 | 126 | 2.6 | 7.8 | 0.00 | 0.04 | 0.01 | 18 | 1020.3 |
| 20260501220307 | 60 | 111 | 2.6 | 7.8 | 0.00 | 0.04 | 0.01 | 18 | 1020.3 |
| 20260501215816 | 60 | 134 | 2.6 | 7.0 | 0.00 | 0.04 | 0.01 | 19 | 1020.3 |
| 20260501215324 | 59 | 84 | 0.0 | 1.7 | 0.00 | 0.04 | 0.01 | 19 | 1020.3 |
| 20260501214805 | 59 | 84 | 0.0 | 6.1 | 0.00 | 0.04 | 0.01 | 19 | 1020.4 |
| 20260501214313 | 59 | 124 | 2.6 | 7.8 | 0.00 | 0.04 | 0.01 | 19 | 1020.5 |
| 20260501213821 | 58 | 124 | 1.7 | 7.8 | 0.00 | 0.04 | 0.01 | 20 | 1020.6 |
| 20260501213329 | 59 | 134 | 0.9 | 6.1 | 0.00 | 0.04 | 0.01 | 19 | 1020.5 |
| 20260501212810 | 59 | 121 | 1.7 | 6.1 | 0.00 | 0.04 | 0.01 | 20 | 1020.7 |
| 20260501212317 | 59 | 355 | 0.9 | 2.6 | 0.00 | 0.04 | 0.01 | 19 | 1020.8 |
| 20260501211806 | 59 | 21 | 0.0 | 4.3 | 0.00 | 0.04 | 0.01 | 21 | 1020.8 |
| 20260501211336 | 58 | 154 | 0.0 | 4.3 | 0.00 | 0.04 | 0.01 | 21 | 1021.0 |
| 20260501210824 | 58 | 94 | 0.0 | 13.0 | 0.00 | 0.04 | 0.01 | 22 | 1021.0 |
| 20260501210305 | 58 | 51 | 5.2 | 13.0 | 0.00 | 0.04 | 0.01 | 22 | 1021.1 |
| 20260501205833 | 57 | 105 | 0.0 | 10.4 | 0.00 | 0.04 | 0.01 | 22 | 1021.0 |
| 20260501205321 | 57 | 105 | 1.7 | 12.2 | 0.00 | 0.04 | 0.01 | 22 | 1021.0 |
| 20260501204808 | 57 | 111 | 6.1 | 11.3 | 0.00 | 0.04 | 0.01 | 22 | 1020.9 |
| 20260501204317 | 57 | 108 | 0.9 | 10.4 | 0.00 | 0.04 | 0.01 | 21 | 1020.9 |
| 20260501203825 | 57 | 108 | 1.7 | 10.4 | 0.00 | 0.04 | 0.01 | 22 | 1021.0 |
| 20260501203307 | 57 | 74 | 0.0 | 7.0 | 0.00 | 0.04 | 0.01 | 20 | 1021.0 |
| 20260501202815 | 57 | 30 | 2.6 | 7.0 | 0.00 | 0.04 | 0.01 | 20 | 1021.1 |
| 20260501202345 | 57 | 317 | 0.9 | 3.5 | 0.00 | 0.04 | 0.01 | 20 | 1021.0 |
| 20260501201812 | 58 | 5 | 0.9 | 6.1 | 0.00 | 0.04 | 0.01 | 21 | 1021.1 |
| 20260501201313 | 58 | 271 | 1.7 | 6.1 | 0.00 | 0.04 | 0.01 | 21 | 1021.2 |
| 20260501200821 | 57 | 306 | 0.0 | 4.3 | 0.00 | 0.04 | 0.01 | 20 | 1021.1 |
| 20260501200310 | 57 | 340 | 0.9 | 7.0 | 0.00 | 0.04 | 0.01 | 22 | 1021.2 |
| 20260501195819 | 56 | 303 | 2.6 | 7.0 | 0.00 | 0.04 | 0.01 | 23 | 1021.3 |
| 20260501195327 | 56 | 194 | 1.7 | 9.6 | 0.00 | 0.04 | 0.01 | 23 | 1021.2 |
| 20260501194808 | 56 | 324 | 3.5 | 9.6 | 0.00 | 0.04 | 0.01 | 23 | 1021.3 |
| 20260501194316 | 57 | 254 | 4.3 | 7.0 | 0.00 | 0.04 | 0.01 | 23 | 1021.3 |
| 20260501193805 | 56 | 104 | 0.9 | 6.1 | 0.00 | 0.04 | 0.01 | 27 | 1021.3 |
| 20260501193307 | 56 | 12 | 2.6 | 6.1 | 0.00 | 0.04 | 0.01 | 26 | 1021.3 |
| 20260501192815 | 56 | 344 | 0.0 | 2.6 | 0.00 | 0.04 | 0.01 | 25 | 1021.3 |
| 20260501192323 | 56 | 348 | 0.9 | 4.3 | 0.00 | 0.04 | 0.01 | 27 | 1021.4 |
| 20260501191812 | 56 | 51 | 0.9 | 4.3 | 0.00 | 0.04 | 0.01 | 27 | 1021.4 |
| 20260501191320 | 56 | 334 | 0.9 | 8.7 | 0.00 | 0.04 | 0.01 | 26 | 1021.4 |
| 20260501190829 | 55 | 26 | 4.3 | 8.7 | 0.00 | 0.04 | 0.01 | 28 | 1021.5 |
| 20260501190337 | 55 | 314 | 0.9 | 5.2 | 0.00 | 0.04 | 0.01 | 28 | 1021.5 |
| 20260501185824 | 54 | 9 | 0.0 | 2.6 | 0.00 | 0.04 | 0.01 | 29 | 1021.6 |
| 20260501185306 | 53 | 176 | 0.0 | 3.5 | 0.00 | 0.04 | 0.01 | 29 | 1021.7 |
| 20260501184835 | 53 | 137 | 0.0 | 4.3 | 0.00 | 0.04 | 0.01 | 30 | 1021.6 |
| 20260501184321 | 54 | 355 | 0.0 | 6.1 | 0.00 | 0.04 | 0.01 | 30 | 1021.7 |
| 20260501183810 | 54 | 304 | 2.6 | 6.1 | 0.00 | 0.04 | 0.01 | 30 | 1021.8 |
| 20260501183339 | 54 | 39 | 0.0 | 4.3 | 0.00 | 0.04 | 0.01 | 31 | 1021.8 |
| 20260501182827 | 54 | 5 | 0.9 | 4.3 | 0.00 | 0.04 | 0.01 | 32 | 1021.8 |
| 20260501182335 | 54 | 355 | 0.9 | 2.6 | 0.00 | 0.04 | 0.01 | 33 | 1021.8 |
| 20260501181815 | 53 | 88 | 0.0 | 1.7 | 0.00 | 0.04 | 0.01 | 34 | 1021.9 |
| 20260501181324 | 52 | 47 | 0.0 | 0.9 | 0.00 | 0.04 | 0.01 | 34 | 1021.9 |
| 20260501180812 | 51 | 47 | 0.0 | 0.9 | 0.00 | 0.04 | 0.01 | 35 | 1022.0 |
| 20260501180340 | 51 | 46 | 0.0 | 0.9 | 0.00 | 0.04 | 0.01 | 35 | 1022.1 |
| 20260501175827 | 51 | 331 | 0.0 | 1.7 | 0.00 | 0.04 | 0.01 | 35 | 1022.1 |
| 20260501175307 | 51 | 331 | 0.0 | 7.0 | 0.00 | 0.04 | 0.01 | 34 | 1022.2 |
| 20260501174816 | 51 | 302 | 0.9 | 7.0 | 0.00 | 0.04 | 0.01 | 37 | 1022.2 |
| 20260501174325 | 50 | 338 | 0.0 | 6.1 | 0.00 | 0.04 | 0.01 | 37 | 1022.3 |
| 20260501173813 | 51 | 320 | 1.7 | 6.1 | 0.00 | 0.04 | 0.01 | 34 | 1022.3 |
| 20260501173315 | 50 | 303 | 3.5 | 6.1 | 0.00 | 0.04 | 0.01 | 37 | 1022.4 |
| 20260501172829 | 50 | 126 | 0.9 | 4.3 | 0.00 | 0.04 | 0.01 | 40 | 1022.4 |
| 20260501171818 | 50 | 63 | 0.9 | 4.3 | 0.00 | 0.04 | 0.01 | 42 | 1022.5 |
| 20260501171328 | 49 | 15 | 0.9 | 4.3 | 0.00 | 0.04 | 0.01 | 43 | 1022.5 |
| 20260501170809 | 48 | 27 | 0.0 | 1.7 | 0.00 | 0.04 | 0.01 | 44 | 1022.5 |
| 20260501170317 | 48 | 105 | 0.0 | 1.7 | 0.00 | 0.04 | 0.01 | 43 | 1022.5 |